Date,TemperatureHighF,TemperatureAvgF,TemperatureLowF,DewpointHighF,DewpointAvgF,DewpointLowF,HumidityHigh,HumidityAvg,HumidityLow,PressureMaxIn,PressureMinIn,WindSpeedMaxMPH,WindSpeedAvgMPH,GustSpeedMaxMPH,PrecipitationSumIn
2013-1-1,30,25,19,26,18,-16,87,74,11,28.71,28.61,7,2,47,17.61
2013-1-2,24,20,17,12,9,7,69,64,58,28.85,28.67,5,1,8,0.00
2013-1-3,28,24,14,18,13,6,73,64,47,28.82,28.69,8,3,12,0.00
2013-1-4,34,26,24,19,14,11,74,60,45,28.84,28.69,11,4,18,0.00
2013-1-5,33,28,24,22,18,14,73,67,57,28.99,28.75,6,1,11,0.00
2013-1-6,36,33,30,30,26,21,89,78,64,28.82,28.60,8,2,11,0.03
2013-1-7,34,29,21,28,22,16,89,76,62,29.06,28.82,7,1,11,0.01
2013-1-8,46,27,15,25,17,10,85,70,39,28.97,28.88,4,0,7,0.10
2013-1-9,50,37,25,36,27,12,86,67,51,29.09,28.77,8,2,16,0.07
2013-1-10,44,32,19,30,23,14,89,71,50,29.24,28.95,4,0,8,0.00
2013-1-11,46,42,38,44,35,22,98,78,49,28.95,28.56,8,2,11,0.36
2013-1-12,60,50,44,54,48,43,99,94,74,28.72,28.62,6,1,10,0.00
2013-1-13,70,57,50,56,53,48,99,86,61,28.62,28.47,10,2,15,0.07
2013-1-14,54,31,26,53,24,16,97,77,61,29.07,28.55,11,1,15,0.02
2013-1-15,34,27,25,18,16,13,72,62,46,29.04,28.75,4,0,5,0.00
2013-1-16,36,31,28,28,22,17,80,70,59,28.76,28.50,8,1,17,0.00
2013-1-17,35,31,28,25,22,17,78,68,52,28.79,28.60,7,2,11,0.00
2013-1-18,31,26,16,13,9,2,56,50,42,29.08,28.77,8,3,14,0.00
2013-1-19,53,41,30,26,19,13,51,42,32,28.78,28.37,11,4,19,0.00
2013-1-20,45,28,19,29,14,4,75,56,42,28.77,28.32,14,5,25,0.00
2013-1-21,23,17,10,11,6,-3,72,61,40,28.72,28.52,9,3,15,0.00
2013-1-22,10,6,4,0,-4,-10,66,60,48,28.83,28.61,11,4,21,0.00
2013-1-23,15,7,2,0,-4,-6,67,59,43,28.84,28.67,6,2,11,0.00
2013-1-24,23,9,-3,6,-3,-12,70,56,26,29.15,28.66,8,1,11,0.00
2013-1-25,18,10,-3,6,0,-12,70,62,51,29.12,28.64,4,1,6,0.00
2013-1-26,30,19,13,17,11,6,79,70,52,29.06,28.69,4,0,7,0.00
2013-1-27,36,24,14,16,11,8,77,60,35,29.14,28.96,4,1,8,0.00
2013-1-28,44,37,26,44,35,16,99,92,65,28.96,28.59,8,2,16,0.50
2013-1-29,57,47,35,54,46,35,99,96,77,28.71,28.42,6,1,13,0.12
2013-1-30,61,56,42,56,50,31,95,81,67,28.75,27.85,12,3,25,1.01
2013-1-31,42,27,20,37,19,7,88,73,46,28.39,27.90,16,1,24,0.10
2013-2-1,30,14,9,20,4,-3,76,65,54,28.90,28.05,0,0,0,0.00
2013-2-2,20,14,8,13,5,-5,77,66,52,28.89,28.58,0,0,0,0.00
2013-2-3,24,18,15,16,10,3,81,69,51,28.58,28.45,0,0,0,0.00
2013-2-4,26,19,13,14,10,7,80,71,54,28.66,28.52,0,0,0,0.00
2013-2-5,33,22,15,19,14,10,82,72,56,28.57,28.47,4,0,6,0.00
2013-2-6,37,23,7,21,11,-2,84,62,25,28.98,28.56,5,1,10,0.05
2013-2-7,52,27,5,24,14,-3,76,59,31,28.95,28.61,8,2,11,0.12
2013-2-8,34,28,18,31,21,10,90,77,67,28.80,28.43,8,1,13,0.01
2013-2-9,20,17,16,11,9,8,73,71,65,29.02,28.80,0,0,0,0.00
2013-2-10,52,36,13,22,14,6,75,44,22,28.94,28.57,6,2,11,0.14
2013-2-11,53,39,32,44,31,20,99,75,51,28.57,28.30,11,4,26,0.10
2013-2-12,32,29,18,23,20,-14,82,69,12,28.69,28.53,8,3,42,20.01
2013-2-13,47,30,19,25,21,6,85,70,37,28.93,28.36,4,0,5,20.01
2013-2-14,37,29,18,33,24,12,90,83,72,28.54,28.46,10,2,16,0.11
2013-2-15,36,31,22,27,21,13,79,66,49,28.72,28.52,8,2,14,0.01
2013-2-16,30,20,8,15,6,-6,75,55,28,28.71,28.56,5,1,8,0.00
2013-2-17,24,15,8,12,5,-2,76,63,46,28.85,28.55,7,1,11,0.00
2013-2-18,40,19,-1,16,3,-9,75,52,27,28.89,28.61,7,1,11,0.04
2013-2-19,39,29,17,37,23,7,96,80,62,28.53,28.27,10,2,16,0.11
2013-2-20,22,16,14,13,7,5,75,69,59,28.68,28.53,0,0,0,0.00
2013-3-14,36,28,19,19,15,12,77,58,48,28.81,28.75,9,2,14,0.03
2013-3-15,37,33,28,31,26,20,86,74,67,28.60,28.49,8,2,11,0.00
2013-3-16,36,30,21,31,26,17,98,87,81,28.65,28.35,4,0,6,0.03
2013-3-17,27,23,19,23,19,15,87,84,80,28.75,28.65,0,0,0,0.00
2013-3-18,28,26,26,17,16,15,65,64,62,28.69,28.61,10,5,14,0.00
2013-3-19,33,28,24,27,22,19,82,79,76,28.53,28.35,7,2,10,0.03
2013-3-20,36,28,22,27,17,13,85,63,44,28.54,28.49,10,3,14,0.07
2013-3-21,23,18,14,11,9,7,76,68,55,28.47,28.44,5,2,9,0.00
2013-3-22,28,24,22,20,19,16,86,80,66,28.56,28.48,4,2,10,0.00
2013-3-23,44,30,19,25,19,12,85,64,40,28.71,28.61,4,1,7,0.10
2013-3-24,36,20,14,22,14,8,85,76,51,28.69,28.53,6,0,9,0.00
2013-3-25,30,30,30,28,28,28,93,92,91,28.17,28.16,4,1,5,0.00
2013-3-26,46,37,28,33,28,23,89,74,49,28.70,28.48,7,2,12,0.02
2013-3-27,39,33,31,28,27,24,88,81,57,28.75,28.67,7,2,11,0.00
2013-3-28,37,32,30,32,30,28,94,90,81,28.85,28.76,2,0,5,0.00
2013-3-29,31,30,30,29,29,29,94,94,94,28.88,28.87,0,0,0,0.00
2013-3-30,38,25,21,30,21,17,90,85,75,28.87,28.85,0,0,0,0.00
2013-3-31,51,42,38,30,25,24,56,51,44,28.52,28.44,6,1,9,0.00
2013-4-1,38,32,28,34,14,9,87,49,32,28.85,28.38,8,3,13,23.68
2013-4-2,32,26,23,27,17,10,86,67,55,28.77,28.68,8,3,12,0.01
2013-4-3,24,24,23,14,13,12,66,64,62,28.88,28.85,2,1,3,0.00
2013-4-4,60,41,13,19,13,7,86,39,19,28.97,28.67,5,1,8,0.00
2013-4-5,49,40,32,33,26,18,66,57,46,28.69,28.59,5,1,9,0.00
2013-4-6,52,40,17,23,16,12,87,44,21,28.92,28.66,6,1,8,0.00
2013-4-7,73,61,44,48,40,30,78,47,28,28.69,28.48,11,4,24,0.00
2013-4-8,74,59,29,50,44,28,99,60,42,28.72,28.52,8,2,13,0.00
2013-4-9,46,45,45,45,44,44,97,97,94,28.79,28.74,2,1,4,0.00
2013-4-10,68,59,51,60,56,51,99,91,76,28.61,28.57,4,1,11,0.00
2013-4-11,45,44,44,44,44,43,98,98,97,28.53,28.49,5,1,8,0.00
2013-4-12,59,48,39,59,45,33,99,91,78,28.51,28.15,9,2,14,0.26
2013-4-13,45,40,34,38,33,29,92,77,60,28.65,28.48,11,3,15,0.05
2013-4-14,45,38,28,34,30,26,95,74,61,28.79,28.65,6,1,8,0.00
2013-4-15,58,51,48,41,38,36,64,61,53,28.75,28.68,4,1,8,0.00
2013-4-16,74,58,49,62,54,49,99,88,65,28.88,28.69,9,2,17,0.05
2013-4-17,72,56,42,39,36,30,79,50,23,28.96,28.86,7,2,10,0.00
2013-4-18,85,74,59,63,59,56,90,63,45,28.66,28.47,9,3,17,0.00
2013-4-19,68,52,40,61,45,29,99,76,62,28.49,28.14,11,5,22,0.27
2013-4-20,34,34,34,27,27,27,76,76,76,28.54,28.53,5,4,9,0.00
2013-4-21,58,41,19,32,22,15,96,51,22,29.25,29.13,8,2,11,0.01
2013-4-22,69,55,34,33,28,23,66,38,19,29.08,28.93,8,2,11,0.00
2013-4-23,74,52,37,39,33,26,81,53,23,28.94,28.69,7,2,11,0.00
2013-4-24,60,48,34,54,46,34,99,93,75,28.76,28.44,8,2,14,0.76
2013-4-25,38,32,30,37,32,30,99,99,97,28.86,28.84,0,0,0,0.00
2013-4-26,59,44,26,47,34,26,99,73,33,29.11,29.03,4,1,7,0.02
2013-4-27,80,62,29,45,32,25,99,41,14,29.03,28.90,5,1,8,0.26
2013-4-28,64,57,50,53,46,40,98,67,50,28.77,28.70,7,2,11,0.05
2013-4-29,69,58,50,58,55,49,99,89,67,28.70,28.61,5,1,12,0.04
2013-4-30,80,63,50,58,53,49,99,75,41,28.87,28.69,7,2,11,0.01
2013-5-1,86,66,51,53,49,38,99,60,27,29.00,28.87,7,2,11,0.00
2013-5-2,86,66,50,45,35,21,61,35,12,29.03,28.90,6,2,10,0.00
2013-5-3,82,65,51,46,40,33,68,43,21,28.93,28.84,8,2,15,0.00
2013-5-4,80,62,47,44,40,32,85,50,19,28.89,28.77,6,2,11,0.00
2013-5-5,86,63,43,46,34,16,95,43,11,28.83,28.71,11,2,14,0.00
2013-5-6,85,61,40,52,41,28,86,52,22,28.77,28.66,5,1,8,0.00
2013-5-7,84,64,50,56,52,47,99,69,32,28.75,28.64,7,1,10,0.00
2013-5-8,76,60,53,63,55,51,99,84,50,28.70,28.60,7,0,10,0.26
2013-5-9,84,66,48,61,52,38,99,67,23,28.68,28.59,6,1,8,0.01
2013-5-10,78,62,47,64,56,45,99,85,61,28.67,28.45,10,1,18,0.51
2013-5-11,60,49,42,59,48,42,99,95,85,28.51,28.42,6,1,11,0.10
2013-5-12,53,42,31,49,35,27,99,78,43,28.69,28.44,58,3,58,29.07
2013-5-13,54,39,27,31,27,24,93,64,35,28.82,28.67,7,1,11,0.02
2013-5-14,56,40,25,44,34,25,99,82,36,28.81,28.55,5,1,11,0.07
2013-5-15,86,64,45,65,52,40,98,68,33,28.56,28.37,10,2,16,0.11
2013-5-16,85,65,44,63,46,38,99,61,22,28.68,28.47,8,1,11,0.22
2013-5-17,86,68,39,54,44,36,99,49,21,28.84,28.76,5,1,7,0.00
2013-5-18,92,68,53,59,50,44,92,56,22,28.85,28.74,5,1,8,0.00
2013-5-19,88,70,57,66,61,57,99,77,45,28.80,28.68,4,1,8,0.00
2013-5-20,93,74,58,70,64,57,99,76,42,28.74,28.59,4,1,8,29.52
2013-5-21,92,77,64,73,66,61,99,73,41,28.64,28.51,9,1,12,0.07
2013-5-22,91,76,65,70,65,58,99,72,42,28.56,28.43,8,2,15,0.23
2013-5-23,80,64,44,68,60,44,99,89,53,28.62,28.46,6,2,11,0.58
2013-5-24,48,41,34,44,38,33,99,88,67,28.92,28.62,6,2,11,0.02
2013-5-25,62,42,29,50,34,28,99,78,37,28.95,28.91,7,1,14,0.00
2013-5-29,90,74,62,73,67,61,99,83,43,28.77,28.43,7,1,11,1.59
2013-5-30,94,76,61,70,65,60,99,73,40,28.86,28.77,5,1,8,0.02
2013-5-31,93,74,57,70,64,56,99,75,41,28.81,28.68,7,1,10,0.02
2013-6-1,90,73,65,71,67,64,99,82,51,28.73,28.57,8,2,14,0.01
2013-6-2,82,71,59,68,62,57,99,73,47,28.62,28.47,9,2,17,0.01
2013-6-3,59,53,50,57,51,46,99,92,74,28.71,28.60,4,1,7,0.00
2013-7-23,88,74,63,74,67,62,99,81,51,28.55,28.38,4,1,9,1.15
2013-7-24,76,61,48,63,54,48,99,81,46,28.73,28.49,7,1,11,1.07
2013-7-25,86,62,44,59,51,43,99,73,35,28.81,28.72,7,1,12,0.00
2013-7-26,90,67,48,66,55,47,99,72,30,28.80,28.69,4,0,9,0.00
2013-7-27,78,65,55,67,61,54,99,88,67,28.70,28.55,4,0,8,0.01
2013-7-28,76,73,70,54,54,52,54,51,49,28.64,28.64,4,2,6,0.00
2013-10-17,54,49,48,52,49,47,99,98,92,28.51,28.42,6,2,11,0.22
2013-10-18,64,51,45,47,43,39,99,77,43,28.64,28.50,8,2,14,0.05
2013-10-19,58,48,41,49,44,41,99,88,65,28.60,28.37,8,2,13,0.27
2013-10-20,60,47,37,45,40,36,99,76,49,28.67,28.55,8,2,16,0.00
2013-10-21,66,53,45,43,39,38,82,62,39,28.67,28.51,8,2,16,0.00
2013-10-25,41,38,34,33,30,28,90,74,38,29.97,28.84,5,1,12,0.00
2013-10-26,44,39,33,37,29,25,99,68,53,28.85,28.51,10,3,21,0.05
2013-10-27,46,37,28,40,34,26,99,89,68,28.75,28.58,6,1,8,0.02
2013-10-28,61,40,27,42,34,26,99,84,46,28.99,28.74,4,0,7,0.02
2013-10-29,61,40,28,41,34,28,99,82,36,29.06,28.63,4,0,6,0.00
2013-10-30,70,47,30,49,38,30,99,76,30,28.94,28.75,4,0,6,0.01
2013-10-31,66,58,50,61,57,48,99,95,80,28.76,28.24,11,2,17,0.25
2013-11-3,33,33,33,22,22,22,63,63,63,29.04,29.04,1,1,2,0.00
2013-11-4,43,36,24,23,17,11,77,47,28,29.20,29.06,6,2,11,0.00
2013-11-5,55,44,34,36,29,20,67,55,44,29.13,28.97,4,1,7,0.00
2013-11-6,71,54,40,57,44,23,99,71,47,29.04,28.33,10,2,14,0.50
2013-11-7,57,41,33,56,36,25,99,84,57,28.76,28.54,9,2,16,0.29
2013-11-8,43,35,27,37,30,23,99,85,61,28.93,28.70,8,1,11,0.23
2013-11-9,53,42,25,41,30,23,97,66,37,28.91,28.55,9,2,17,0.02
2013-11-10,50,43,36,41,34,28,95,71,61,28.89,28.55,13,3,18,0.00
2013-11-11,45,38,31,37,32,28,99,80,55,28.89,28.67,11,2,17,0.23
2013-11-12,39,29,24,26,21,16,94,73,44,29.07,28.90,4,0,9,0.00
2013-11-13,26,25,25,24,24,23,95,94,92,29.08,29.06,0,0,0,0.00
2013-11-14,51,39,26,23,18,13,66,45,26,29.03,28.77,7,2,12,3.85
2013-11-15,59,44,35,31,21,15,66,42,22,28.82,28.74,8,1,14,0.02
2013-11-16,62,47,31,48,40,28,99,75,52,28.90,28.66,5,1,12,0.00
2013-11-17,60,55,50,58,53,47,99,94,79,28.67,28.26,8,2,15,0.43
2013-11-23,35,19,17,18,13,9,86,78,33,29.01,28.87,2,0,3,0.34
2013-11-24,24,18,12,19,12,7,86,77,58,29.10,28.93,0,0,0,0.00
2013-11-25,34,22,8,23,10,2,84,62,37,29.06,28.69,5,0,9,0.00
2013-11-26,34,31,28,30,28,23,99,88,77,28.83,28.45,4,0,6,0.12
2013-11-27,32,27,21,30,23,14,99,86,62,28.69,28.39,0,0,0,0.07
2013-11-28,29,22,19,17,15,10,87,74,48,29.03,28.69,0,0,0,0.00
2013-11-29,36,24,13,25,16,8,87,73,45,29.29,29.03,2,0,4,0.00
2013-11-30,38,26,16,23,17,11,83,70,50,29.26,28.85,5,1,13,0.02
2013-12-1,42,26,19,29,21,14,92,81,58,28.86,28.70,2,0,5,0.00
2013-12-2,45,37,29,33,30,26,88,75,60,28.57,28.50,3,0,4,0.04